createdAt,value
2023-05-07T00:01:51.592Z,16.60
2023-05-07T00:04:24.067Z,16.80
2023-05-07T00:06:56.747Z,16.30
2023-05-07T00:12:02.022Z,16.80
2023-05-07T00:14:34.333Z,16.50
2023-05-07T00:17:06.365Z,16.50
2023-05-07T00:19:38.700Z,16.90
2023-05-07T00:22:11.274Z,16.70
2023-05-07T00:24:43.836Z,16.30
2023-05-07T00:27:16.024Z,16.40
2023-05-07T00:32:20.648Z,16.20
2023-05-07T00:34:53.009Z,16.10
2023-05-07T00:37:25.000Z,15.80
2023-05-07T00:39:57.361Z,16.20
2023-05-07T00:42:30.162Z,15.80
2023-05-07T00:47:34.948Z,16.40
2023-05-07T00:50:08.682Z,15.50
2023-05-07T00:52:40.807Z,15.60
2023-05-07T00:55:15.935Z,15.20
2023-05-07T00:57:48.194Z,15.10
2023-05-07T01:00:21.217Z,15.30
2023-05-07T01:02:53.376Z,15.80
2023-05-07T01:05:27.641Z,15.60
2023-05-07T01:08:00.981Z,15.80
2023-05-07T01:10:33.929Z,14.80
2023-05-07T01:13:06.649Z,15.10
2023-05-07T01:15:39.526Z,15.20
2023-05-07T01:18:11.834Z,15.40
2023-05-07T01:20:44.576Z,15.60
2023-05-07T01:23:17.389Z,16.10
2023-05-07T01:25:56.694Z,15.80
2023-05-07T01:28:31.503Z,15.50
2023-05-07T01:31:07.562Z,16.00
2023-05-07T01:33:42.451Z,15.70
2023-05-07T01:36:15.772Z,15.80
2023-05-07T01:41:21.266Z,15.20
2023-05-07T01:43:54.975Z,15.60
2023-05-07T01:46:29.236Z,15.60
2023-05-07T01:49:01.246Z,15.70
2023-05-07T01:51:34.417Z,15.60
2023-05-07T01:54:07.518Z,15.70
2023-05-07T01:56:40.006Z,15.20
2023-05-07T01:59:12.133Z,15.40
2023-05-07T02:04:17.525Z,15.80
2023-05-07T02:06:50.386Z,16.50
2023-05-07T02:09:23.922Z,16.20
2023-05-07T02:11:57.305Z,16.20
2023-05-07T02:14:29.673Z,16.10
2023-05-07T02:17:02.484Z,16.30
2023-05-07T02:19:34.602Z,15.80
2023-05-07T02:22:15.696Z,15.90
2023-05-07T02:25:33.968Z,16.00
2023-05-07T02:28:06.330Z,15.80
2023-05-07T02:31:01.709Z,15.70
2023-05-07T02:33:36.554Z,16.00
2023-05-07T02:36:12.856Z,15.60
2023-05-07T02:38:52.027Z,16.00
2023-05-07T02:41:29.083Z,16.30
2023-05-07T02:44:01.516Z,16.40
2023-05-07T02:46:34.220Z,15.80
2023-05-07T02:49:10.599Z,16.10
2023-05-07T02:51:42.492Z,16.10
2023-05-07T02:54:20.662Z,16.00
2023-05-07T02:56:52.709Z,15.50
2023-05-07T02:59:27.528Z,15.00
2023-05-07T03:01:59.550Z,15.40
2023-05-07T03:04:32.026Z,15.40
2023-05-07T03:07:04.587Z,14.90
2023-05-07T03:12:09.389Z,15.20
2023-05-07T03:14:41.829Z,15.50
2023-05-07T03:19:46.415Z,14.00
2023-05-07T03:22:18.415Z,13.60
2023-05-07T03:24:50.688Z,13.30
2023-05-07T03:27:23.052Z,13.30
2023-05-07T03:32:31.302Z,13.20
2023-05-07T03:35:03.979Z,13.20
2023-05-07T03:37:36.781Z,13.20
2023-05-07T03:40:12.241Z,13.10
2023-05-07T03:42:51.816Z,13.00
2023-05-07T03:45:26.529Z,13.00
2023-05-07T03:50:41.905Z,13.10
2023-05-07T03:53:13.939Z,13.40
2023-05-07T03:55:46.725Z,14.30
2023-05-07T03:58:18.610Z,14.10
2023-05-07T04:00:51.244Z,14.30
2023-05-07T04:03:31.480Z,14.30
2023-05-07T04:06:05.118Z,14.10
2023-05-07T04:08:40.262Z,14.30
2023-05-07T04:11:13.719Z,14.30
2023-05-07T04:16:18.387Z,14.00
2023-05-07T04:18:50.414Z,14.10
2023-05-07T04:21:23.132Z,14.50
2023-05-07T04:23:57.817Z,14.80
2023-05-07T04:29:03.130Z,14.80
2023-05-07T04:31:39.043Z,15.30
2023-05-07T04:34:12.179Z,14.80
2023-05-07T04:36:44.589Z,14.40
2023-05-07T04:39:18.780Z,14.20
2023-05-07T04:41:53.098Z,14.00
2023-05-07T04:44:25.903Z,13.90
2023-05-07T04:46:58.966Z,13.70
2023-05-07T04:49:31.141Z,13.80
2023-05-07T04:52:04.892Z,13.70
2023-05-07T04:57:11.514Z,13.90
2023-05-07T04:59:43.360Z,14.00
2023-05-07T05:02:20.088Z,14.20
2023-05-07T05:04:53.660Z,14.10
2023-05-07T05:07:26.664Z,14.30
2023-05-07T05:09:58.984Z,14.30
2023-05-07T05:12:32.079Z,14.50
2023-05-07T05:15:06.961Z,14.50
2023-05-07T05:17:39.710Z,14.50
2023-05-07T05:20:12.891Z,14.60
2023-05-07T05:22:46.891Z,14.40
2023-05-07T05:25:19.639Z,14.70
2023-05-07T05:27:52.529Z,14.80
2023-05-07T05:30:25.004Z,14.80
2023-05-07T05:32:57.869Z,14.60
2023-05-07T05:35:32.749Z,14.40
2023-05-07T05:38:08.618Z,14.30
2023-05-07T05:40:40.634Z,15.40
2023-05-07T05:43:13.188Z,14.50
2023-05-07T05:45:45.150Z,14.80
2023-05-07T05:48:17.540Z,15.20
2023-05-07T05:50:49.631Z,15.30
2023-05-07T05:53:24.592Z,15.30
2023-05-07T05:55:56.560Z,15.40
2023-05-07T05:58:29.850Z,15.70
2023-05-07T06:01:06.420Z,15.90
2023-05-07T06:03:40.386Z,16.90
2023-05-07T06:08:51.895Z,17.70
2023-05-07T06:11:30.317Z,18.00
2023-05-07T06:14:02.624Z,18.30
2023-05-07T06:16:36.592Z,18.50
2023-05-07T06:19:08.897Z,18.60
2023-05-07T06:21:41.435Z,18.90
2023-05-07T06:24:13.869Z,19.30
2023-05-07T06:26:45.846Z,19.30
2023-05-07T06:31:52.086Z,19.00
2023-05-07T06:34:24.904Z,19.00
2023-05-07T06:36:57.237Z,19.30
2023-05-07T06:39:38.966Z,19.30
2023-05-07T06:42:11.018Z,19.00
2023-05-07T06:44:47.396Z,19.10
2023-05-07T06:47:22.109Z,19.20
2023-05-07T06:49:58.464Z,19.20
2023-05-07T06:52:34.759Z,19.20
2023-05-07T06:55:08.256Z,19.40
2023-05-07T06:57:40.318Z,19.80
2023-05-07T07:00:14.227Z,20.60
2023-05-07T07:02:52.802Z,21.10
2023-05-07T07:05:28.876Z,21.10
2023-05-07T07:08:02.638Z,20.20
2023-05-07T07:10:34.979Z,19.50
2023-05-07T07:13:08.538Z,19.40
2023-05-07T07:15:41.726Z,18.70
2023-05-07T07:18:13.972Z,18.80
2023-05-07T07:20:46.716Z,19.70
2023-05-07T07:23:19.362Z,21.50
2023-05-07T07:25:51.681Z,22.30
2023-05-07T07:28:23.845Z,23.40
2023-05-07T07:30:56.186Z,23.40
2023-05-07T07:33:28.524Z,23.30
2023-05-07T07:36:02.610Z,22.90
2023-05-07T07:38:35.288Z,22.90
2023-05-07T07:41:10.749Z,22.90
2023-05-07T07:43:43.032Z,23.40
2023-05-07T07:46:15.522Z,23.20
2023-05-07T07:48:49.278Z,23.00
2023-05-07T07:51:22.020Z,24.00
2023-05-07T07:53:58.706Z,23.90
2023-05-07T07:56:31.510Z,24.50
2023-05-07T07:59:03.857Z,24.60
2023-05-07T08:01:37.917Z,24.70
2023-05-07T08:04:10.853Z,25.40
2023-05-07T08:06:47.547Z,25.70
2023-05-07T08:09:20.275Z,25.70
2023-05-07T08:11:52.942Z,26.20
2023-05-07T08:14:25.576Z,27.10
2023-05-07T08:16:58.016Z,26.70
2023-05-07T08:19:30.311Z,25.50
2023-05-07T08:22:05.588Z,25.50
2023-05-07T08:24:39.208Z,26.20
2023-05-07T08:27:11.554Z,26.40
2023-05-07T08:29:48.429Z,24.80
2023-05-07T08:32:22.265Z,24.70
2023-05-07T08:34:54.864Z,23.90
2023-05-07T08:37:27.479Z,23.60
2023-05-07T08:39:59.853Z,23.30
2023-05-07T08:42:39.250Z,23.00
2023-05-07T08:45:12.400Z,23.20
2023-05-07T08:47:54.188Z,23.00
2023-05-07T08:50:28.652Z,23.50
2023-05-07T08:53:01.578Z,23.80
2023-05-07T08:55:34.250Z,24.40
2023-05-07T08:58:06.983Z,24.50
2023-05-07T09:00:43.138Z,26.40
2023-05-07T09:03:15.923Z,26.90
2023-05-07T09:05:51.874Z,26.80
2023-05-07T09:08:28.599Z,27.10
2023-05-07T09:11:04.117Z,26.90
2023-05-07T09:13:36.867Z,26.80
2023-05-07T09:16:14.044Z,27.70
2023-05-07T09:18:52.480Z,27.70
2023-05-07T09:21:24.433Z,26.80
2023-05-07T09:23:59.648Z,26.60
2023-05-07T09:26:47.660Z,26.90
2023-05-07T09:29:21.321Z,25.90
2023-05-07T09:34:26.182Z,25.30
2023-05-07T09:37:03.598Z,24.50
2023-05-07T09:39:51.298Z,23.80
2023-05-07T09:42:28.292Z,24.10
2023-05-07T09:47:48.223Z,25.30
2023-05-07T09:50:23.300Z,24.30
2023-05-07T09:52:56.547Z,23.80
2023-05-07T09:55:30.831Z,23.20
2023-05-07T09:58:05.136Z,22.80
2023-05-07T10:00:38.939Z,22.20
2023-05-07T10:03:16.232Z,21.00
2023-05-07T10:06:02.080Z,20.60
2023-05-07T10:11:10.247Z,20.70
2023-05-07T10:13:43.995Z,20.50
2023-05-07T10:16:18.139Z,19.90
2023-05-07T10:18:53.362Z,19.60
2023-05-07T10:21:31.110Z,19.00
2023-05-07T10:24:15.531Z,18.70
2023-05-07T10:26:52.789Z,18.60
2023-05-07T10:29:28.383Z,18.00
2023-05-07T10:32:34.730Z,17.50
2023-05-07T10:35:23.385Z,17.50
2023-05-07T10:40:32.866Z,17.10
2023-05-07T10:43:10.206Z,17.10
2023-05-07T10:46:19.890Z,17.30
2023-05-07T10:49:02.746Z,17.50
2023-05-07T10:51:42.942Z,17.60
2023-05-07T10:54:26.992Z,18.10
2023-05-07T10:57:32.945Z,18.70
2023-05-07T11:00:39.019Z,19.20
2023-05-07T11:06:15.308Z,19.70
2023-05-07T11:08:58.586Z,20.40
2023-05-07T11:11:48.888Z,20.70
2023-05-07T11:14:46.170Z,20.80
2023-05-07T11:17:23.044Z,21.30
2023-05-07T11:20:05.494Z,22.20
2023-05-07T11:25:42.988Z,22.30
2023-05-07T11:28:21.890Z,22.10
2023-05-07T11:31:07.501Z,21.90
2023-05-07T11:33:40.433Z,22.00
2023-05-07T11:36:19.233Z,22.40
2023-05-07T11:41:38.070Z,22.10
2023-05-07T11:44:10.031Z,22.20
2023-05-07T11:46:46.157Z,21.90
2023-05-07T11:49:18.504Z,22.00
2023-05-07T11:56:58.208Z,21.20
2023-05-07T11:59:30.216Z,20.90
2023-05-07T12:04:35.161Z,20.60
2023-05-07T12:09:49.831Z,20.60
2023-05-07T12:14:54.650Z,20.90
2023-05-07T12:17:27.332Z,21.40
2023-05-07T12:19:59.367Z,21.90
2023-05-07T12:22:31.890Z,22.30
2023-05-07T12:25:04.090Z,22.80
2023-05-07T12:27:39.415Z,22.40
2023-05-07T12:30:13.052Z,22.40
2023-05-07T12:32:47.211Z,22.50
2023-05-07T12:38:01.234Z,22.20
2023-05-07T12:40:42.300Z,21.80
2023-05-07T12:43:35.444Z,21.50
2023-05-07T12:46:09.438Z,21.50
2023-05-07T12:48:47.116Z,21.50
2023-05-07T12:51:19.678Z,21.70
2023-05-07T12:53:51.520Z,21.70
2023-05-07T12:56:24.853Z,21.80
2023-05-07T12:58:58.896Z,21.70
2023-05-07T13:01:33.859Z,21.80
2023-05-07T13:04:06.661Z,21.70
2023-05-07T13:06:39.260Z,21.00
2023-05-07T13:09:11.329Z,21.10
2023-05-07T13:11:46.309Z,21.40
2023-05-07T13:16:51.245Z,21.20
2023-05-07T13:19:23.195Z,21.30
2023-05-07T13:21:55.736Z,21.30
2023-05-07T13:24:27.592Z,21.40
2023-05-07T13:27:00.154Z,21.20
2023-05-07T13:29:32.932Z,21.00
2023-05-07T13:32:05.674Z,20.80
2023-05-07T13:34:38.030Z,20.70
2023-05-07T13:37:11.996Z,20.70
2023-05-07T13:39:44.131Z,20.60
2023-05-07T13:44:48.951Z,20.90
2023-05-07T13:47:22.618Z,21.10
2023-05-07T13:49:55.969Z,21.40
2023-05-07T14:00:07.040Z,21.80
2023-05-07T14:02:47.419Z,21.90
2023-05-07T14:07:53.770Z,21.70
2023-05-07T14:10:26.252Z,21.50
2023-05-07T14:18:06.314Z,21.60
2023-05-07T14:20:38.673Z,21.30
2023-05-07T14:28:16.714Z,21.70
2023-05-07T14:30:49.452Z,21.80
2023-05-07T14:33:21.315Z,21.70
2023-05-07T14:35:53.821Z,21.70
2023-05-07T14:40:59.007Z,21.60
2023-05-07T14:43:30.974Z,21.60
2023-05-07T14:46:03.268Z,21.90
2023-05-07T14:48:35.189Z,22.10
2023-05-07T14:51:07.899Z,22.00
2023-05-07T14:53:41.592Z,22.10
2023-05-07T14:56:14.246Z,22.10
2023-05-07T14:58:50.131Z,22.20
2023-05-07T15:01:23.061Z,20.60
2023-05-07T15:03:55.608Z,22.30
2023-05-07T15:06:28.278Z,22.30
2023-05-07T15:09:00.767Z,22.50
2023-05-07T15:11:33.318Z,22.50
2023-05-07T15:14:05.445Z,22.10
2023-05-07T15:16:38.104Z,21.80
2023-05-07T15:19:10.116Z,21.70
2023-05-07T15:21:42.683Z,21.60
2023-05-07T15:24:14.523Z,21.40
2023-05-07T15:29:20.237Z,21.50
2023-05-07T15:31:53.314Z,21.50
2023-05-07T15:34:25.408Z,21.50
2023-05-07T15:37:00.592Z,21.50
2023-05-07T15:39:32.802Z,21.60
2023-05-07T15:42:04.690Z,21.70
2023-05-07T15:44:37.132Z,21.50
2023-05-07T15:47:09.120Z,21.50
2023-05-07T15:49:43.072Z,21.50
2023-05-07T15:52:15.730Z,21.60
2023-05-07T15:57:21.523Z,21.40
2023-05-07T15:59:54.409Z,21.50
2023-05-07T16:04:59.445Z,21.40
2023-05-07T16:07:31.291Z,21.30
2023-05-07T16:10:05.906Z,21.30
2023-05-07T16:12:37.836Z,21.30
2023-05-07T16:15:10.956Z,21.20
2023-05-07T16:17:48.506Z,21.10
2023-05-07T16:20:22.145Z,21.10
2023-05-07T16:22:54.022Z,21.10
2023-05-07T16:25:26.569Z,20.90
2023-05-07T16:27:58.478Z,21.00
2023-05-07T16:38:11.161Z,20.90
2023-05-07T16:40:44.485Z,20.90
2023-05-07T16:43:16.358Z,20.90
2023-05-07T16:45:49.145Z,21.10
2023-05-07T16:48:21.353Z,21.10
2023-05-07T16:50:53.968Z,21.10
2023-05-07T16:55:58.485Z,21.10
2023-05-07T16:58:31.385Z,21.10
2023-05-07T17:03:36.530Z,20.90
2023-05-07T17:06:13.948Z,20.90
2023-05-07T17:08:46.550Z,20.90
2023-05-07T17:11:18.446Z,20.90
2023-05-07T17:13:52.249Z,20.90
2023-05-07T17:16:24.237Z,20.80
2023-05-07T17:18:56.841Z,20.70
2023-05-07T17:21:29.050Z,20.70
2023-05-07T17:26:36.303Z,20.70
2023-05-07T17:29:09.926Z,20.50
2023-05-07T17:31:41.806Z,20.40
2023-05-07T17:34:15.627Z,20.40
2023-05-07T17:36:47.795Z,20.30
2023-05-07T17:39:20.558Z,20.30
2023-05-07T17:41:52.473Z,20.20
2023-05-07T17:46:57.420Z,20.10
2023-05-07T17:49:32.172Z,20.10
2023-05-07T18:02:14.470Z,19.80
2023-05-07T18:04:47.099Z,19.70
2023-05-07T18:09:51.822Z,19.70
2023-05-07T18:12:25.544Z,19.60
2023-05-07T18:14:59.974Z,19.50
2023-05-07T18:17:31.816Z,19.50
2023-05-07T18:20:11.726Z,19.50
2023-05-07T18:22:43.827Z,19.50
2023-05-07T18:27:48.684Z,19.60
2023-05-07T18:32:54.464Z,19.50
2023-05-07T18:35:27.055Z,19.40
2023-05-07T18:37:59.028Z,19.40
2023-05-07T18:40:31.582Z,19.20
2023-05-07T18:43:06.782Z,19.20
2023-05-07T18:45:39.916Z,19.10
2023-05-07T18:48:11.823Z,19.00
2023-05-07T18:50:44.810Z,18.80
2023-05-07T18:53:16.733Z,18.70
2023-05-07T18:55:53.061Z,18.40
2023-05-07T19:00:57.978Z,18.10
2023-05-07T19:06:03.568Z,17.80
2023-05-07T19:08:35.422Z,17.70
2023-05-07T19:11:07.904Z,17.60
2023-05-07T19:13:39.748Z,17.60
2023-05-07T19:16:13.817Z,17.50
2023-05-07T19:18:45.745Z,17.50
2023-05-07T19:21:18.292Z,17.50
2023-05-07T19:23:53.297Z,17.50
2023-05-07T19:26:26.067Z,17.50
2023-05-07T19:31:34.387Z,17.50
2023-05-07T19:36:39.175Z,17.60
2023-05-07T19:39:11.577Z,17.50
2023-05-07T19:44:16.437Z,17.50
2023-05-07T19:49:21.498Z,17.40
2023-05-07T19:51:54.470Z,17.40
2023-05-07T19:54:26.341Z,17.40
2023-05-07T19:59:31.204Z,17.40
2023-05-07T20:02:03.568Z,17.40
2023-05-07T20:04:38.106Z,17.20
2023-05-07T20:07:10.878Z,17.30
2023-05-07T20:14:47.947Z,17.40
2023-05-07T20:17:20.190Z,17.40
2023-05-07T20:19:52.079Z,17.40
2023-05-07T20:22:24.839Z,17.30
2023-05-07T20:24:56.670Z,17.30
2023-05-07T20:27:28.889Z,17.30
2023-05-07T20:30:01.184Z,17.20
2023-05-07T20:32:33.499Z,17.20
2023-05-07T20:35:06.532Z,17.20
2023-05-07T20:37:40.213Z,17.30
2023-05-07T20:40:12.732Z,17.40
2023-05-07T20:42:45.438Z,17.30
2023-05-07T20:45:17.423Z,17.30
2023-05-07T20:47:50.031Z,17.40
2023-05-07T20:50:26.751Z,17.40
2023-05-07T20:52:59.291Z,17.30
2023-05-07T20:55:31.282Z,17.30
2023-05-07T21:03:11.295Z,17.10
2023-05-07T21:05:43.220Z,17.10
2023-05-07T21:08:15.787Z,17.00
2023-05-07T21:10:48.683Z,17.00
2023-05-07T21:13:21.960Z,16.90
2023-05-07T21:15:54.191Z,16.80
2023-05-07T21:18:26.705Z,16.80
2023-05-07T21:20:59.385Z,16.70
2023-05-07T21:23:31.219Z,16.60
2023-05-07T21:26:04.582Z,16.50
2023-05-07T21:28:36.446Z,16.60
2023-05-07T21:31:08.951Z,16.60
2023-05-07T21:41:20.739Z,16.40
2023-05-07T21:43:53.756Z,16.30
2023-05-07T21:46:26.281Z,16.40
2023-05-07T21:51:34.559Z,16.20
2023-05-07T21:54:06.906Z,16.10
2023-05-07T21:56:39.438Z,16.20
2023-05-07T21:59:11.359Z,16.20
2023-05-07T22:04:16.419Z,16.10
2023-05-07T22:06:48.916Z,16.10
2023-05-07T22:09:20.927Z,16.00
2023-05-07T22:11:53.553Z,15.90
2023-05-07T22:14:25.426Z,15.90
2023-05-07T22:16:58.100Z,15.80
2023-05-07T22:22:03.037Z,15.80
2023-05-07T22:24:34.945Z,15.80
2023-05-07T22:27:07.460Z,15.80
2023-05-07T22:29:39.366Z,15.70
2023-05-07T22:32:12.875Z,15.70
2023-05-07T22:34:45.959Z,15.70
2023-05-07T22:39:50.844Z,15.60
2023-05-07T22:42:24.398Z,15.60
2023-05-07T22:44:56.736Z,15.60
2023-05-07T22:47:31.254Z,15.50
2023-05-07T22:50:05.200Z,15.50
2023-05-07T22:52:37.764Z,15.40
2023-05-07T22:55:10.240Z,15.40
2023-05-07T23:02:48.238Z,15.40
2023-05-07T23:05:20.919Z,15.40
2023-05-07T23:07:52.771Z,15.40
2023-05-07T23:12:57.743Z,15.30
2023-05-07T23:15:30.329Z,15.50
2023-05-07T23:18:02.365Z,16.20
2023-05-07T23:20:35.408Z,16.30
2023-05-07T23:23:07.702Z,16.60
2023-05-07T23:25:40.242Z,16.00
2023-05-07T23:28:12.467Z,12.50
2023-05-07T23:30:44.697Z,16.40
2023-05-07T23:33:16.700Z,16.80
2023-05-07T23:35:49.190Z,16.60
2023-05-07T23:38:21.202Z,16.60
2023-05-07T23:40:54.761Z,16.60
2023-05-07T23:43:27.272Z,16.90
2023-05-07T23:48:31.940Z,17.30
2023-05-07T23:51:04.521Z,17.20
2023-05-07T23:56:09.519Z,17.10
2023-05-07T23:58:41.690Z,17.10
